Latest Coastal Weather Observations for Darwin Airport

IDD60701

Issued at 5:11 pm CST Sunday 5 July 2015 (issued every 10 minutes, with the page automatically refreshed every 10 minutes)

About coastal observations | Map of coastal stations | Coastal observations for NT | Marine services | Other Formats
Station Details ID: 014015 Name: DARWIN AIRPORT Lat: -12.42 Lon: 130.89 Height: 30.4 m
Data from the previous 72 hours. | See also: Recent months at Darwin Airport
Date/Time
CST
Temp

°C
Wind Pressure Rain
since 9am
mm
Weather Cloud Vis
km
Sea
Height
m
Swell
Dir
 
Speed
knots
Gust
knots
hPa Trend Height
m
Period
s
Dir
05/05:00pm 28.2 N 9 10 1011.8 - 0.0 - - 10 - - - -
05/04:30pm 28.1 N 9 11 1011.8 - 0.0 - - 10 - - - -
05/04:00pm 28.2 N 9 13 1011.8 - 0.0 - - 10 - - - -
05/03:30pm 28.6 NW 7 10 1012.0 - 0.0 - - 10 - - - -
05/03:00pm 28.8 NNW 11 15 1012.2 R 0.0 Fine Mostly clear 30 - - - -
05/02:30pm 28.4 WNW 8 11 1012.7 - 0.0 - Partly cloudy 10 - - - -
05/02:00pm 28.4 WNW 9 14 1013.2 - 0.0 - Partly cloudy 10 - - - -
05/01:30pm 28.4 W 9 11 1013.4 - 0.0 - - 10 - - - -
05/01:00pm 28.5 NW 11 15 1013.9 - 0.0 - - 10 - - - -
05/12:30pm 28.5 NNE 5 7 1014.2 - 0.0 - Mostly clear 10 - - - -
05/12:00pm 28.1 E 5 7 1014.5 R 0.0 Fine Mostly clear 30 - - - -
05/11:30am 27.5 E 7 12 1015.2 - 0.0 - Mostly clear 10 - - - -
05/11:00am 27.1 E 7 11 1015.4 - 0.0 - Mostly clear 10 - - - -
05/10:30am 25.9 SE 7 10 1015.4 - 0.0 - - 10 - - - -
05/10:00am 23.8 ESE 8 11 1015.5 - 0.0 - - 10 - - - -
05/09:30am 23.0 SSE 10 13 1015.6 - 0.0 - - 10 - - - -
05/09:00am 22.3 SSE 10 12 1015.3 R 0.0 Fine Mostly clear 30 - - - -
05/08:30am 20.8 SSE 7 8 1015.5 - 0.0 - Mostly clear 10 - - - -
05/08:00am 19.3 ESE 5 6 1015.3 - 0.0 - Mostly clear 10 - - - -
05/07:30am 18.7 ESE 7 8 1015.1 - 0.0 - Mostly clear 10 - - - -
05/07:00am 18.9 SE 9 13 1014.7 - 0.0 - Mostly clear 10 - - - -
05/06:30am 19.3 SSE 6 8 1014.2 - 0.0 - Mostly clear 10 - - - -
05/06:00am 16.5 CALM 0 0 1013.7 R 0.0 Fine Clear 30 - - - -
05/05:30am 16.3 NE 5 5 1013.7 - 0.0 - - 10 - - - -
05/05:00am 16.8 ESE 4 4 1013.6 - 0.0 - - 10 - - - -
05/04:30am 18.0 S 4 5 1013.4 - 0.0 - - 10 - - - -
05/04:00am 17.8 ESE 5 5 1013.3 - 0.0 - - 10 - - - -
05/03:30am 18.0 E 4 6 1013.3 - 0.0 - - 10 - - - -
05/03:00am 18.4 NE 5 8 1013.3 R 0.0 Fine Clear 30 - - - -
05/02:30am 19.6 SW 5 5 1013.3 - 0.0 - - 10 - - - -
05/02:00am 21.7 SW 6 7 1013.4 - 0.0 - - 10 - - - -
05/01:30am 21.8 SW 7 9 1013.6 - 0.0 - - 10 - - - -
05/01:00am 22.1 SW 7 10 1013.8 - 0.0 - - 10 - - - -
05/12:30am 22.2 SW 6 8 1013.8 - 0.0 - - 10 - - - -
05/12:00am 20.3 SW 5 6 1013.6 F 0.0 Smoke Clear 30 - - - -
 
Date/Time
CST
Temp

°C
Wind Pressure Rain
since 9am
mm
Weather Cloud Vis
km
Sea
Height
m
Swell
Dir
 
Speed
knots
Gust
knots
hPa Trend Height
m
Period
s
Dir
04/11:30pm 18.7 CALM 0 0 1014.0 - 0.0 - - 10 - - - -
04/11:00pm 18.7 W 2 5 1014.1 - 0.0 - - 10 - - - -
04/10:30pm 19.3 WSW 6 6 1014.1 - 0.0 - - 10 - - - -
04/10:00pm 19.9 WSW 5 6 1014.3 - 0.0 - - 10 - - - -
04/09:30pm 20.3 SW 4 5 1014.2 - 0.0 - - 10 - - - -
04/09:00pm 20.9 NW 4 4 1013.6 R 0.0 Fine Clear 30 - - - -
04/08:30pm 21.7 NW 4 5 1013.4 - 0.0 - - 10 - - - -
04/08:00pm 22.9 WNW 5 5 1013.1 - 0.0 - - 10 - - - -
04/07:30pm 24.5 NW 5 6 1012.8 - 0.0 - - 10 - - - -
04/07:00pm 25.1 NNW 6 7 1012.4 - 0.0 - - 10 - - - -
04/06:30pm 25.6 NNW 7 9 1012.1 - 0.0 - - 10 - - - -
04/06:00pm 26.6 NNW 10 13 1011.4 R 0.0 Smoke Clear 30 - - - -
04/05:30pm 27.3 N 10 14 1011.1 - 0.0 - - 10 - - - -
04/05:00pm 28.0 N 9 12 1010.9 - 0.0 - - 10 - - - -
04/04:30pm 28.6 N 10 12 1010.8 - 0.0 - - 10 - - - -
04/04:00pm 28.2 N 10 13 1010.9 - 0.0 - - 10 - - - -
04/03:30pm 29.0 NNW 11 14 1011.0 - 0.0 - - 10 - - - -
04/03:00pm 30.6 NNW 11 17 1010.7 F 0.0 Smoke Clear 30 - - - -
04/02:30pm 30.2 S 6 11 1011.6 - 0.0 - - 10 - - - -
04/02:00pm 30.2 ESE 9 17 1012.3 - 0.0 - - 10 - - - -
04/01:30pm 30.1 E 9 15 1012.7 - 0.0 - - 10 - - - -
04/01:00pm 30.1 E 10 17 1013.0 - 0.0 - - 10 - - - -
04/12:30pm 28.8 E 11 16 1013.6 - 0.0 - - 10 - - - -
04/12:00pm 28.2 E 13 18 1013.9 F 0.0 Fine Mostly clear 30 - - - -
04/11:30am 26.9 E 15 18 1014.7 - 0.0 - - 10 - - - -
04/11:00am 26.8 E 15 20 1015.0 - 0.0 - - 10 - - - -
04/10:30am 26.4 E 14 18 1015.2 - 0.0 - - 10 - - - -
04/10:00am 25.6 E 14 18 1015.6 - 0.0 - - 10 - - - -
04/09:30am 24.3 E 13 15 1015.9 - 0.0 - - 10 - - - -
04/09:00am 23.1 E 11 14 1015.8 F 0.0 Fine Clear 30 - - - -
04/08:30am 21.9 E 9 12 1015.7 - 0.0 - - 10 - - - -
04/08:00am 20.7 ESE 7 9 1015.4 - 0.0 - - 10 - - - -
04/07:30am 19.7 ESE 8 9 1015.0 - 0.0 - - 10 - - - -
04/07:00am 19.6 E 9 10 1014.7 - 0.0 - - 10 - - - -
04/06:30am 18.5 E 7 8 1014.6 - 0.0 - - 10 - - - -
04/06:00am 19.3 E 8 9 1014.4 S 0.0 Fine Mostly clear 30 - - - -
04/05:30am 18.3 E 7 9 1014.6 - 0.0 - - 10 - - - -
04/05:00am 18.0 E 4 11 1014.3 - 0.0 - - 10 - - - -
04/04:30am 19.7 E 6 7 1014.0 - 0.0 - - 10 - - - -
04/04:00am 21.3 SE 7 8 1014.0 - 0.0 - - 10 - - - -
04/03:30am 21.8 SE 7 8 1014.1 - 0.0 - - 10 - - - -
04/03:00am 21.5 SSE 6 7 1014.1 R 0.0 Fine Mostly clear 30 - - - -
04/02:30am 20.4 SSE 6 7 1014.5 - 0.0 - - 10 - - - -
04/02:00am 19.3 SSE 5 6 1014.5 - 0.0 - - 10 - - - -
04/01:30am 19.9 SE 5 5 1014.7 - 0.0 - - 10 - - - -
04/01:00am 21.8 ESE 6 7 1014.6 - 0.0 - - 10 - - - -
04/12:30am 21.8 SE 5 7 1014.5 - 0.0 - - 10 - - - -
04/12:00am 20.0 SE 4 5 1014.4 R 0.0 Fine Mostly clear 30 - - - -
 
Date/Time
CST
Temp

°C
Wind Pressure Rain
since 9am
mm
Weather Cloud Vis
km
Sea
Height
m
Swell
Dir
 
Speed
knots
Gust
knots
hPa Trend Height
m
Period
s
Dir
03/11:30pm 20.2 S 6 6 1014.7 - 0.0 - - 10 - - - -
03/11:00pm 21.3 S 5 6 1014.8 - 0.0 - - 10 - - - -
03/10:30pm 22.2 S 4 5 1014.9 - 0.0 - - 10 - - - -
03/10:00pm 22.0 S 4 5 1014.6 - 0.0 - - 10 - - - -
03/09:30pm 22.0 E 5 6 1014.2 - 0.0 - - 10 - - - -
03/09:00pm 22.9 ENE 5 5 1013.8 R 0.0 Smoke Mostly clear 30 - - - -
03/08:30pm 23.3 ENE 5 6 1013.7 - 0.0 - - 10 - - - -
03/08:00pm 23.9 NE 5 7 1013.3 - 0.0 - - 10 - - - -
03/07:30pm 24.6 NNE 6 7 1013.0 - 0.0 - - 10 - - - -
03/07:00pm 25.3 NNE 8 10 1012.8 - 0.0 - - 10 - - - -
03/06:30pm 26.2 N 9 10 1012.6 - 0.0 - - 10 - - - -
03/06:00pm 27.3 N 10 13 1011.9 F 0.0 Smoke Partly cloudy 30 - - - -
03/05:30pm 28.2 N 10 12 1011.9 - 0.0 - - 10 - - - -
03/05:00pm 30.7 N 9 13 1011.9 - 0.0 - Partly cloudy 10 - - - -
03/04:30pm 31.5 ESE 11 16 1011.8 - 0.0 - Partly cloudy 10 - - - -
03/04:00pm 31.1 ESE 8 13 1011.8 - 0.0 - Mostly clear 10 - - - -
03/03:30pm 30.3 ESE 11 16 1012.1 - 0.0 - Partly cloudy 10 - - - -
03/03:00pm 31.4 ESE 9 14 1012.3 F 0.0 Fine Mostly clear 30 - - - -
03/02:30pm 30.9 E 12 16 1012.9 - 0.0 - Partly cloudy 10 - - - -
03/02:00pm 30.7 E 13 18 1013.4 - 0.0 - - 10 - - - -
03/01:30pm 30.9 E 13 21 1013.9 - 0.0 - - 10 - - - -
03/01:00pm 30.0 ESE 14 20 1014.6 - 0.0 - - 10 - - - -
03/12:30pm 30.0 E 15 18 1014.9 - 0.0 - - 10 - - - -
03/12:00pm 29.3 E 14 19 1015.4 F 0.0 Fine Partly cloudy 30 - - - -
03/11:30am 28.3 E 16 21 1016.1 - 0.0 - Mostly clear 10 - - - -
03/11:00am 28.7 E 16 20 1016.2 - 0.0 - Mostly clear 10 - - - -
03/10:30am 27.2 ESE 16 20 1016.5 - 0.0 - Mostly clear 10 - - - -
03/10:00am 26.9 ESE 10 13 1016.6 - 0.0 - - 10 - - - -
03/09:30am 25.5 SE 11 16 1016.6 - 0.0 - - 10 - - - -
03/09:00am 25.4 ESE 10 13 1016.7 S 0.0 Fine Mostly cloudy 30 - - - -
03/08:30am 24.6 ESE 8 11 1016.5 - 0.0 - - 10 - - - -
03/08:00am 23.3 ESE 8 10 1016.4 - 0.0 - - 10 - - - -
03/07:30am 23.2 ESE 8 9 1016.0 - 0.0 - - 10 - - - -
03/07:00am 23.3 E 8 9 1015.7 - 0.0 - Mostly clear 10 - - - -
03/06:30am 23.6 E 8 9 1015.4 - 0.0 - - 10 - - - -
03/06:00am 23.3 ESE 8 10 1015.1 F 0.0 Fine Mostly clear 30 - - - -
03/05:30am 22.2 ESE 6 7 1015.1 - 0.0 - - 10 - - - -
03/05:00am 21.7 SE 7 8 1015.0 - 0.0 - - 10 - - - -
03/04:30am 21.7 SSE 7 8 1015.1 - 0.0 - - 10 - - - -
03/04:00am 22.1 SSE 7 8 1015.2 - 0.0 - - 10 - - - -
03/03:30am 22.3 SSE 5 6 1015.2 - 0.0 - - 10 - - - -
03/03:00am 22.7 S 6 7 1015.2 R 0.0 Smoke Mostly clear 20 - - - -
03/02:30am 23.1 S 4 5 1015.7 - 0.0 - - 10 - - - -
03/02:00am 23.2 S 3 6 1015.8 - 0.0 - Partly cloudy 10 - - - -
03/01:30am 23.8 SW 4 6 1016.0 - 0.0 - Partly cloudy 10 - - - -
03/01:00am 23.4 SSW 5 5 1015.9 - 0.0 - - 10 - - - -
03/12:30am 23.0 S 6 8 1016.1 - 0.0 - - 10 - - - -
03/12:00am 22.7 E 3 4 1015.6 R 0.0 Smoke Mostly clear 30 - - - -
 
Date/Time
CST
Temp

°C
Wind Pressure Rain
since 9am
mm
Weather Cloud Vis
km
Sea
Height
m
Swell
Dir
 
Speed
knots
Gust
knots
hPa Trend Height
m
Period
s
Dir
02/11:30pm 23.2 E 4 4 1015.7 - 0.0 - Partly cloudy 10 - - - -
02/11:00pm 23.5 NE 6 7 1015.8 - 0.0 - - 10 - - - -
02/10:30pm 24.0 NE 6 8 1015.7 - 0.0 - - 10 - - - -
02/10:00pm 24.3 NNE 6 8 1015.7 - 0.0 - - 10 - - - -
02/09:30pm 24.2 NNE 7 9 1015.4 - 0.0 - - 10 - - - -
02/09:00pm 24.5 NE 7 9 1014.9 R 0.0 Smoke Partly cloudy 30 - - - -
02/08:30pm 24.7 NE 7 8 1014.9 - 0.0 - - 10 - - - -
02/08:00pm 25.8 NNE 7 8 1014.6 - 0.0 - - 10 - - - -
02/07:30pm 26.1 NNE 7 8 1014.2 - 0.0 - - 10 - - - -
02/07:00pm 27.0 NNE 9 10 1013.9 - 0.0 - - 10 - - - -
02/06:30pm 27.7 NE 10 14 1013.5 - 0.0 - - 10 - - - -
02/06:00pm 28.3 NNE 11 15 1012.9 S 0.0 Smoke Mostly clear 20 - - - -
02/05:30pm 29.8 NNE 12 17 1012.8 - 0.0 - - 10 - - - -

Other Formats:

Comma delimited format used in spreadsheet applications
http://www.bom.gov.au/fwo/IDD60701/IDD60701.94120.axf

JavaScript Object Notation format (JSON) in row-major order
http://www.bom.gov.au/fwo/IDD60701/IDD60701.94120.json